首页
METAR-TAF:

METAR-TAF

机场 :

藻德济, 马约特

纬度: 12-48S, 经度: 045-17E, 海拔: 8米

当前天气观测

该预报发布于23分钟前的13:30 UTC
风速14节,风向
温度 29°C
湿度 70%
气压 1014 hPa
能见度10公里或以上
少量云层高于2300英尺

METAR: FMCZ 171330Z AUTO 18014KT 9999 FEW023 29/23 Q1014 NOSIG

时间: 16:53 (13:53 UTC)

预报

该预报发布于2小时和53分钟前的11:00 UTC
预报有效从17日的 12点(UTC)到 18日的 12点(UTC)
风速12节,风向
能见度10公里或以上
少量云层高于2400英尺

TAF: FMCZ 171100Z 1712/1812 18012KT 9999 FEW024

超过4000个机场的气象观测和天气预报(METAR&TAF报告)。

可查询的气象台以黄色和红色小点在地图上表示。

将鼠标移到小点上方,可查看气象台名称。

然后点击查看天气观测和预报。

如需切换地图:点击带黑十字的绿色按钮放大地图;点击带横线的绿色按钮缩小地图;或者点击绿色箭头查看邻近地区的地图。


METAR-TAF: